createdAt,value
2023-01-30T01:22:37.117Z,100502.02
2023-01-30T01:25:09.107Z,100498.77
2023-01-30T01:27:38.293Z,100499.12
2023-01-30T01:30:07.100Z,100497.23
2023-01-30T01:32:35.634Z,100492.10
2023-01-30T01:35:04.615Z,100491.41
2023-01-30T01:37:32.768Z,100487.48
2023-01-30T01:40:19.725Z,100487.65
2023-01-30T01:42:47.959Z,100487.98
2023-01-30T01:45:18.942Z,100484.06
2023-01-30T01:48:00.476Z,100485.95
2023-01-30T01:50:40.129Z,100482.85
2023-01-30T01:53:09.244Z,100488.16
2023-01-30T01:55:39.370Z,100486.45
2023-01-30T01:58:10.940Z,100487.31
2023-01-30T02:00:39.081Z,100484.40
2023-01-30T02:03:10.074Z,100478.58
2023-01-30T02:05:41.145Z,100483.55
2023-01-30T02:08:21.412Z,100480.30
2023-01-30T02:10:52.257Z,100476.19
2023-01-30T02:13:20.804Z,100474.98
2023-01-30T02:15:49.954Z,100474.98
2023-01-30T02:18:18.187Z,100474.13
2023-01-30T02:20:57.328Z,100474.98
2023-01-30T02:23:54.758Z,100474.64
2023-01-30T02:26:53.935Z,100471.21
2023-01-30T02:29:40.657Z,100460.42
2023-01-30T02:32:30.736Z,100449.82
2023-01-30T02:35:04.320Z,100447.41
2023-01-30T02:37:32.760Z,100451.36
2023-01-30T02:40:30.044Z,100447.76
2023-01-30T02:43:16.965Z,100440.23
2023-01-30T02:45:54.996Z,100434.06
2023-01-30T02:48:23.746Z,100429.61
2023-01-30T02:51:03.487Z,100432.02
2023-01-30T02:53:34.569Z,100429.26
2023-01-30T02:56:03.028Z,100423.96
2023-01-30T02:58:35.175Z,100421.23
2023-01-30T03:01:28.924Z,100418.50
2023-01-30T03:03:59.839Z,100416.44
2023-01-30T03:06:37.151Z,100415.56
2023-01-30T03:09:25.848Z,100408.73
2023-01-30T03:12:12.620Z,100408.39
2023-01-30T03:14:53.234Z,100405.30
2023-01-30T03:17:21.486Z,100407.02
2023-01-30T03:19:49.577Z,100402.91
2023-01-30T03:22:17.728Z,100399.33
2023-01-30T03:24:45.824Z,100398.82
2023-01-30T03:27:14.405Z,100397.95
2023-01-30T03:29:44.547Z,100399.16
2023-01-30T03:32:12.787Z,100402.75
2023-01-30T03:34:41.972Z,100398.30
2023-01-30T03:37:11.513Z,100394.88
2023-01-30T03:39:39.559Z,100391.45
2023-01-30T03:42:08.452Z,100389.73
2023-01-30T03:44:36.729Z,100387.34
2023-01-30T03:47:04.913Z,100385.96
2023-01-30T03:49:33.183Z,100382.70
2023-01-30T03:52:01.227Z,100378.08
2023-01-30T03:54:29.717Z,100373.30
2023-01-30T03:56:57.892Z,100366.63
2023-01-30T03:59:26.161Z,100365.08
2023-01-30T04:02:03.063Z,100358.23
2023-01-30T04:04:31.418Z,100353.78
2023-01-30T04:07:00.165Z,100358.41
2023-01-30T04:09:29.167Z,100355.68
2023-01-30T04:11:58.573Z,100356.19
2023-01-30T04:14:28.981Z,100353.27
2023-01-30T04:17:16.244Z,100352.93
2023-01-30T04:20:03.875Z,100355.84
2023-01-30T04:22:33.334Z,100353.61
2023-01-30T04:25:05.243Z,100350.86
2023-01-30T04:27:33.446Z,100347.09
2023-01-30T04:30:11.299Z,100348.27
2023-01-30T04:32:40.315Z,100350.69
2023-01-30T04:35:09.167Z,100354.11
2023-01-30T04:37:37.434Z,100355.48
2023-01-30T04:40:06.313Z,100357.35
2023-01-30T04:42:35.818Z,100351.02
2023-01-30T04:45:22.757Z,100349.98
2023-01-30T04:47:54.836Z,100350.51
2023-01-30T04:50:25.532Z,100346.23
2023-01-30T04:52:53.741Z,100344.86
2023-01-30T04:55:21.844Z,100343.14
2023-01-30T04:57:50.490Z,100336.29
2023-01-30T05:00:18.879Z,100333.38
2023-01-30T05:02:56.795Z,100332.87
2023-01-30T05:05:26.143Z,100330.99
2023-01-30T05:07:54.893Z,100336.13
2023-01-30T05:10:23.337Z,100332.36
2023-01-30T05:19:23.303Z,100317.98
2023-01-30T05:22:49.629Z,100309.08
2023-01-30T05:25:38.125Z,100303.77
2023-01-30T05:28:06.416Z,100304.79
2023-01-30T05:30:34.897Z,100307.35
2023-01-30T05:33:03.253Z,100306.30
2023-01-30T05:35:31.427Z,100300.15
2023-01-30T05:38:00.166Z,100298.25
2023-01-30T05:40:28.447Z,100297.73
2023-01-30T05:42:56.659Z,100291.23
2023-01-30T05:45:26.222Z,100281.99
2023-01-30T05:47:58.477Z,100275.30
2023-01-30T05:50:29.481Z,100272.42
2023-01-30T05:52:59.161Z,100272.77
2023-01-30T05:55:27.308Z,100269.52
2023-01-30T05:57:55.538Z,100270.72
2023-01-30T06:00:23.862Z,100265.77
2023-01-30T06:02:52.771Z,100267.30
2023-01-30T06:05:21.775Z,100269.19
2023-01-30T06:07:49.908Z,100272.27
2023-01-30T06:10:18.427Z,100264.41
2023-01-30T06:12:46.661Z,100265.23
2023-01-30T06:15:15.437Z,100263.88
2023-01-30T06:17:44.045Z,100261.98
2023-01-30T06:20:12.667Z,100260.27
2023-01-30T06:22:41.108Z,100262.48
2023-01-30T06:25:09.613Z,100256.66
2023-01-30T06:27:38.671Z,100253.23
2023-01-30T06:30:09.721Z,100249.48
2023-01-30T06:32:38.710Z,100248.95
2023-01-30T06:35:07.215Z,100242.12
2023-01-30T06:37:36.287Z,100238.86
2023-01-30T06:40:04.709Z,100240.23
2023-01-30T06:42:33.001Z,100234.59
2023-01-30T06:45:01.166Z,100232.86
2023-01-30T06:47:33.124Z,100231.00
2023-01-30T06:50:01.238Z,100230.31
2023-01-30T06:52:29.747Z,100225.35
2023-01-30T06:54:59.093Z,100228.93
2023-01-30T06:57:27.314Z,100231.50
2023-01-30T06:59:56.132Z,100228.23
2023-01-30T07:02:25.339Z,100226.52
2023-01-30T07:04:53.540Z,100227.54
2023-01-30T07:07:21.523Z,100225.31
2023-01-30T07:10:05.813Z,100222.40
2023-01-30T07:12:36.359Z,100217.27
2023-01-30T07:15:06.741Z,100215.04
2023-01-30T07:17:38.289Z,100216.92
2023-01-30T07:20:07.354Z,100218.81
2023-01-30T07:22:35.750Z,100221.86
2023-01-30T07:25:04.537Z,100218.97
2023-01-30T07:27:33.183Z,100210.73
2023-01-30T07:30:01.922Z,100212.45
2023-01-30T07:32:30.523Z,100210.21
2023-01-30T07:34:58.939Z,100208.14
2023-01-30T07:37:27.001Z,100199.58
2023-01-30T07:39:55.048Z,100200.27
2023-01-30T07:42:23.210Z,100192.55
2023-01-30T07:44:52.349Z,100187.91
2023-01-30T07:47:20.756Z,100189.29
2023-01-30T07:49:48.893Z,100185.48
2023-01-30T07:52:17.255Z,100183.59
2023-01-30T07:54:45.589Z,100184.61
2023-01-30T07:57:14.133Z,100176.39
2023-01-30T07:59:43.203Z,100168.34
2023-01-30T08:02:11.632Z,100167.46
2023-01-30T08:04:39.739Z,100166.61
2023-01-30T08:07:07.842Z,100162.67
2023-01-30T08:09:35.908Z,100156.35
2023-01-30T08:12:05.963Z,100152.39
2023-01-30T08:14:36.686Z,100148.45
2023-01-30T08:17:06.302Z,100145.52
2023-01-30T08:19:37.159Z,100138.14
2023-01-30T08:22:05.759Z,100136.42
2023-01-30T08:24:33.817Z,100134.70
2023-01-30T08:27:02.031Z,100130.58
2023-01-30T08:29:30.283Z,100121.84
2023-01-30T08:31:59.185Z,100114.61
2023-01-30T08:34:27.561Z,100114.59
2023-01-30T08:36:55.748Z,100107.01
2023-01-30T08:39:24.067Z,100103.02
2023-01-30T08:41:52.899Z,100099.23
2023-01-30T08:44:21.304Z,100089.78
2023-01-30T08:46:50.041Z,100091.30
2023-01-30T08:49:20.416Z,100090.80
2023-01-30T08:51:50.084Z,100085.45
2023-01-30T08:54:18.333Z,100084.94
2023-01-30T08:56:46.936Z,100076.19
2023-01-30T08:59:16.149Z,100075.81
2023-01-30T09:01:47.111Z,100070.46
2023-01-30T09:04:15.345Z,100071.98
2023-01-30T09:06:43.807Z,100064.09
2023-01-30T09:09:12.324Z,100064.25
2023-01-30T09:11:42.529Z,100060.98
2023-01-30T09:14:11.341Z,100053.94
2023-01-30T09:16:39.715Z,100053.42
2023-01-30T09:19:07.987Z,100046.24
2023-01-30T09:21:36.417Z,100045.04
2023-01-30T09:24:07.160Z,100041.10
2023-01-30T09:26:40.516Z,100035.94
2023-01-30T09:29:08.815Z,100032.51
2023-01-30T09:31:38.629Z,100028.40
2023-01-30T09:34:07.425Z,100023.42
2023-01-30T09:36:35.699Z,100021.02
2023-01-30T09:39:04.002Z,100017.46
2023-01-30T09:41:57.478Z,100017.46
2023-01-30T09:45:14.270Z,100010.30
2023-01-30T09:47:45.138Z,100005.52
2023-01-30T09:50:56.061Z,99996.25
2023-01-30T09:53:50.377Z,99997.45
2023-01-30T09:56:18.470Z,99997.81
2023-01-30T09:58:52.300Z,99994.23
2023-01-30T10:01:45.655Z,99990.83
2023-01-30T10:04:15.957Z,99983.98
2023-01-30T10:06:59.533Z,99975.09
2023-01-30T10:09:44.141Z,99971.17
2023-01-30T10:12:37.657Z,99969.80
2023-01-30T10:15:31.301Z,99963.96
2023-01-30T10:18:25.768Z,99959.99
2023-01-30T10:21:03.170Z,99952.92
2023-01-30T10:23:52.727Z,99951.89
2023-01-30T10:26:23.650Z,99943.14
2023-01-30T10:29:06.765Z,99935.27
2023-01-30T10:31:41.367Z,99935.27
2023-01-30T10:34:25.834Z,99935.77
2023-01-30T10:37:00.374Z,99920.86
2023-01-30T10:39:49.643Z,99916.41
2023-01-30T10:42:39.738Z,99905.27
2023-01-30T10:45:14.425Z,99898.39
2023-01-30T10:48:00.292Z,99897.33
2023-01-30T10:50:36.990Z,99889.92
2023-01-30T10:53:18.403Z,99881.66
2023-01-30T10:55:53.105Z,99873.92
2023-01-30T10:58:33.745Z,99871.34
2023-01-30T11:01:10.830Z,99860.15
2023-01-30T11:03:45.766Z,99852.93
2023-01-30T11:06:19.127Z,99846.40
2023-01-30T11:08:48.096Z,99846.75
2023-01-30T11:11:27.867Z,99839.59
2023-01-30T11:14:03.382Z,99831.70
2023-01-30T11:16:32.233Z,99822.91
2023-01-30T11:21:52.263Z,99819.59
2023-01-30T11:24:22.127Z,99816.13
2023-01-30T11:26:50.762Z,99809.21
2023-01-30T11:29:32.974Z,99801.48
2023-01-30T11:32:06.886Z,99793.43
2023-01-30T11:34:37.393Z,99792.77
2023-01-30T11:37:28.390Z,99785.59
2023-01-30T11:39:56.767Z,99783.04
2023-01-30T11:42:29.514Z,99778.41
2023-01-30T11:45:16.109Z,99773.60
2023-01-30T11:47:58.785Z,99769.30
2023-01-30T11:50:41.692Z,99763.48
2023-01-30T11:53:21.195Z,99756.27
2023-01-30T11:56:02.269Z,99754.38
2023-01-30T11:58:33.858Z,99745.27
2023-01-30T12:01:02.690Z,99745.92
2023-01-30T12:03:31.482Z,99744.52
2023-01-30T12:06:01.859Z,99741.73
2023-01-30T12:08:42.227Z,99742.08
2023-01-30T12:11:30.088Z,99735.70
2023-01-30T12:14:49.518Z,99736.54
2023-01-30T12:17:46.439Z,99732.77
2023-01-30T12:20:20.799Z,99730.20
2023-01-30T12:23:13.585Z,99724.84
2023-01-30T12:26:01.572Z,99717.63
2023-01-30T12:28:41.742Z,99715.73
2023-01-30T12:31:14.493Z,99708.67
2023-01-30T12:33:43.087Z,99704.70
2023-01-30T12:36:17.880Z,99699.22
2023-01-30T12:39:24.440Z,99699.56
2023-01-30T12:44:54.075Z,99696.79
2023-01-30T12:47:37.193Z,99697.95
2023-01-30T12:50:21.554Z,99693.30
2023-01-30T12:52:59.563Z,99690.51
2023-01-30T12:55:38.646Z,99684.69
2023-01-30T12:58:13.134Z,99686.78
2023-01-30T13:00:56.461Z,99685.26
2023-01-30T13:03:35.930Z,99681.16
2023-01-30T13:06:35.809Z,99676.17
2023-01-30T13:09:13.569Z,99678.57
2023-01-30T13:12:09.057Z,99679.77
2023-01-30T13:14:43.216Z,99679.76
2023-01-30T13:17:41.187Z,99681.83
2023-01-30T13:20:37.344Z,99682.67
2023-01-30T13:23:22.848Z,99681.11
2023-01-30T13:26:08.970Z,99674.61
2023-01-30T13:28:45.569Z,99670.33
2023-01-30T13:31:16.740Z,99670.15
2023-01-30T13:33:46.055Z,99665.70
2023-01-30T13:36:19.562Z,99663.13
2023-01-30T13:39:01.721Z,99660.89
2023-01-30T13:41:34.119Z,99655.23
2023-01-30T13:44:07.441Z,99656.27
2023-01-30T13:46:35.832Z,99650.98
2023-01-30T16:57:31.899Z,99537.38
2023-01-30T17:00:00.645Z,99536.72
2023-01-30T17:02:36.689Z,99538.38
2023-01-30T17:05:19.322Z,99537.33
2023-01-30T17:07:48.053Z,99539.01
2023-01-30T17:10:40.690Z,99537.85
2023-01-30T17:13:44.553Z,99529.13
2023-01-30T17:16:43.364Z,99529.52
2023-01-30T17:22:53.889Z,99528.45
2023-01-30T17:25:39.928Z,99529.15
2023-01-30T17:28:08.905Z,99527.27
2023-01-30T17:30:37.728Z,99526.60
2023-01-30T17:33:06.429Z,99525.57
2023-01-30T17:35:35.423Z,99526.94
2023-01-30T17:38:05.962Z,99526.95
2023-01-30T17:40:36.880Z,99526.33
2023-01-30T17:43:05.318Z,99519.86
2023-01-30T17:45:34.147Z,99514.25
2023-01-30T17:48:03.040Z,99513.08
2023-01-30T17:50:33.563Z,99513.80
2023-01-30T17:53:02.644Z,99514.20
2023-01-30T17:55:30.950Z,99519.19
2023-01-30T17:58:57.649Z,99520.80
2023-01-30T18:05:38.667Z,99535.16
2023-01-30T18:08:07.018Z,99528.70
2023-01-30T18:10:38.099Z,99526.48
2023-01-30T18:13:06.427Z,99528.20
2023-01-30T18:15:35.139Z,99524.13
2023-01-30T18:18:05.095Z,99520.55
2023-01-30T18:20:39.732Z,99521.59
2023-01-30T18:23:08.093Z,99520.23
2023-01-30T18:25:36.559Z,99516.30
2023-01-30T18:28:07.355Z,99522.29
2023-01-30T18:30:36.072Z,99514.57
2023-01-30T18:33:04.442Z,99521.98
2023-01-30T18:35:32.683Z,99521.87
2023-01-30T18:38:02.878Z,99519.00
2023-01-30T18:40:31.303Z,99526.75
2023-01-30T18:42:59.386Z,99519.22
2023-01-30T18:45:27.519Z,99519.59
2023-01-30T18:47:56.146Z,99515.69
2023-01-30T18:50:24.333Z,99512.09
2023-01-30T18:52:52.550Z,99511.95
2023-01-30T18:55:23.555Z,99504.44
2023-01-30T18:57:52.338Z,99508.05
2023-01-30T19:00:21.639Z,99503.93
2023-01-30T19:02:53.692Z,99506.50
2023-01-30T19:05:22.510Z,99509.80
2023-01-30T19:07:50.654Z,99508.25
2023-01-30T19:10:20.668Z,99502.61
2023-01-30T19:13:08.580Z,99500.59
2023-01-30T19:15:36.824Z,99495.32
2023-01-30T19:18:05.016Z,99489.84
2023-01-30T19:20:36.463Z,99489.67
2023-01-30T19:23:04.740Z,99483.18
2023-01-30T19:25:36.516Z,99483.27
2023-01-30T19:28:25.054Z,99468.51
2023-01-30T19:30:53.907Z,99470.61
2023-01-30T19:33:23.221Z,99473.23
2023-01-30T19:35:51.401Z,99472.13
2023-01-30T19:38:19.477Z,99472.37
2023-01-30T19:40:48.054Z,99475.30
2023-01-30T19:43:16.120Z,99474.63
2023-01-30T19:45:44.833Z,99475.17
2023-01-30T19:48:13.404Z,99472.45
2023-01-30T19:50:41.968Z,99470.40
2023-01-30T19:53:10.044Z,99472.44
2023-01-30T19:55:42.727Z,99466.30
2023-01-30T19:58:14.953Z,99466.67
2023-01-30T20:01:15.678Z,99471.32
2023-01-30T20:04:45.647Z,99478.94
2023-01-30T20:07:14.647Z,99475.73
2023-01-30T20:09:43.135Z,99475.25
2023-01-30T20:12:11.359Z,99476.84
2023-01-30T20:14:40.111Z,99470.71
2023-01-30T20:17:18.479Z,99472.45
2023-01-30T20:20:07.840Z,99476.92
2023-01-30T20:22:36.958Z,99476.61
2023-01-30T20:25:09.829Z,99473.88
2023-01-30T20:28:00.499Z,99475.58
2023-01-30T20:30:32.569Z,99472.31
2023-01-30T20:33:01.119Z,99469.91
2023-01-30T20:35:34.653Z,99466.32
2023-01-30T20:38:24.057Z,99468.16
2023-01-30T20:41:20.989Z,99467.67
2023-01-30T20:43:52.387Z,99476.79
2023-01-30T20:46:22.352Z,99475.60
2023-01-30T20:48:52.814Z,99474.75
2023-01-30T20:51:30.847Z,99479.77
2023-01-30T20:54:03.175Z,99481.01
2023-01-30T20:56:46.331Z,99479.68
2023-01-30T20:59:16.248Z,99486.41
2023-01-30T21:01:44.572Z,99483.02
2023-01-30T21:04:14.512Z,99482.04
2023-01-30T21:06:45.770Z,99486.34
2023-01-30T21:09:20.237Z,99488.95
2023-01-30T21:11:49.461Z,99487.75
2023-01-30T21:14:18.545Z,99488.95
2023-01-30T21:16:46.848Z,99484.50
2023-01-30T21:19:18.618Z,99490.17
2023-01-30T21:21:53.421Z,99483.83
2023-01-30T21:24:24.089Z,99480.05
2023-01-30T21:26:52.696Z,99477.67
2023-01-30T21:29:22.631Z,99472.56
2023-01-30T21:31:51.090Z,99471.02
2023-01-30T21:34:25.037Z,99471.38
2023-01-30T21:37:22.774Z,99471.23
2023-01-30T21:40:09.695Z,99465.39
2023-01-30T21:42:56.538Z,99469.84
2023-01-30T21:45:24.667Z,99466.96
2023-01-30T21:47:54.254Z,99465.07
2023-01-30T21:50:22.356Z,99463.90
2023-01-30T21:52:50.382Z,99464.98
2023-01-30T21:55:20.040Z,99464.16
2023-01-30T21:57:48.472Z,99457.51
2023-01-30T22:00:16.636Z,99455.42
2023-01-30T22:02:45.016Z,99455.08
2023-01-30T22:05:13.388Z,99452.17
2023-01-30T22:07:43.199Z,99457.64
2023-01-30T22:10:11.832Z,99456.46
2023-01-30T22:12:41.592Z,99452.38
2023-01-30T22:15:10.110Z,99447.59
2023-01-30T22:17:39.075Z,99452.38
2023-01-30T22:20:10.200Z,99454.23
2023-01-30T22:22:38.601Z,99448.55
2023-01-30T22:25:07.240Z,99441.33
2023-01-30T22:27:35.258Z,99440.65
2023-01-30T22:30:03.524Z,99445.63
2023-01-30T22:32:35.417Z,99442.73
2023-01-30T22:35:04.085Z,99450.11
2023-01-30T22:37:32.759Z,99446.73
2023-01-30T22:40:01.132Z,99445.55
2023-01-30T22:42:29.366Z,99443.83
2023-01-30T22:44:57.443Z,99442.63
2023-01-30T22:47:25.479Z,99448.83
2023-01-30T22:49:54.586Z,99447.80
2023-01-30T22:52:22.585Z,99446.95
2023-01-30T22:54:51.444Z,99441.14
2023-01-30T22:57:20.947Z,99442.00
2023-01-30T22:59:48.937Z,99437.23
2023-01-30T23:02:16.923Z,99441.20
2023-01-30T23:04:45.107Z,99443.43
2023-01-30T23:07:14.447Z,99443.94
2023-01-30T23:09:42.512Z,99439.15
2023-01-30T23:12:29.343Z,99438.30
2023-01-30T23:14:57.414Z,99434.70
2023-01-30T23:17:44.508Z,99436.06
2023-01-30T23:20:13.212Z,99435.52
2023-01-30T23:22:41.291Z,99430.86
2023-01-30T23:25:10.789Z,99434.92
2023-01-30T23:27:39.127Z,99433.55
2023-01-30T23:30:07.594Z,99427.23
2023-01-30T23:32:35.711Z,99425.52
2023-01-30T23:35:03.906Z,99422.44
2023-01-30T23:37:50.507Z,99427.56
2023-01-30T23:40:18.558Z,99423.95
2023-01-30T23:42:46.647Z,99423.25
2023-01-30T23:45:15.198Z,99424.10
2023-01-30T23:47:44.599Z,99417.05
2023-01-30T23:50:38.744Z,99420.98
2023-01-30T23:53:07.269Z,99419.27
2023-01-30T23:55:36.283Z,99416.52
2023-01-30T23:58:04.346Z,99416.70
